Time,TemperatureF,DewpointF,PressureIn,WindDirection,WindDirectionDegrees,WindSpeedMPH,WindSpeedGustMPH,Humidity,HourlyPrecipIn,Conditions,Clouds,dailyrainin,SoftwareType,DateUTC
2013-05-13 00:03:00,35.5,28.0,30.12,SSW,212,0.0,-999.0,74,-99.99,,,0.00,weatherlink.com 1.10,2013-05-13 04:03:00,
2013-05-13 00:18:00,35.5,28.0,30.12,West,271,0.0,-999.0,74,-99.99,,,0.00,weatherlink.com 1.10,2013-05-13 04:18:00,
2013-05-13 00:33:00,35.2,28.0,30.12,West,260,0.0,-999.0,74,-99.99,,,0.00,weatherlink.com 1.10,2013-05-13 04:33:00,
2013-05-13 00:48:00,34.4,28.0,30.12,West,260,0.0,-999.0,77,-99.99,,,0.00,weatherlink.com 1.10,2013-05-13 04:48:00,
2013-05-13 01:03:00,33.9,28.0,30.12,West,260,0.0,-999.0,79,-99.99,,,0.00,weatherlink.com 1.10,2013-05-13 05:03:00,
2013-05-13 01:18:00,34.0,28.0,30.12,West,260,0.0,-999.0,78,-99.99,,,0.00,weatherlink.com 1.10,2013-05-13 05:18:00,
2013-05-13 01:33:00,33.1,28.0,30.12,West,260,0.0,-999.0,80,-99.99,,,0.00,weatherlink.com 1.10,2013-05-13 05:33:00,
2013-05-13 01:48:00,32.7,28.0,30.12,West,260,0.0,-999.0,82,-99.99,,,0.00,weatherlink.com 1.10,2013-05-13 05:48:00,
2013-05-13 02:03:00,32.8,28.0,30.12,West,260,0.0,-999.0,83,-99.99,,,0.00,weatherlink.com 1.10,2013-05-13 06:03:00,
2013-05-13 02:18:00,31.8,28.0,30.12,West,260,0.0,-999.0,84,-99.99,,,0.00,weatherlink.com 1.10,2013-05-13 06:18:00,
2013-05-13 02:33:00,31.6,27.0,30.12,West,260,0.0,-999.0,84,-99.99,,,0.00,weatherlink.com 1.10,2013-05-13 06:33:00,
2013-05-13 02:48:00,32.3,28.0,30.12,NNW,348,0.0,-999.0,85,-99.99,,,0.00,weatherlink.com 1.10,2013-05-13 06:48:00,
2013-05-13 03:03:00,33.0,28.0,30.12,NW,304,0.0,-999.0,83,-99.99,,,0.00,weatherlink.com 1.10,2013-05-13 07:03:00,
2013-05-13 03:18:00,32.9,28.0,30.12,NW,325,0.0,-999.0,83,-99.99,,,0.00,weatherlink.com 1.10,2013-05-13 07:18:00,
2013-05-13 03:33:00,31.6,27.0,30.13,NW,323,0.0,-999.0,84,-99.99,,,0.00,weatherlink.com 1.10,2013-05-13 07:33:00,
2013-05-13 03:48:00,31.3,28.0,30.13,NW,323,0.0,-999.0,87,-99.99,,,0.00,weatherlink.com 1.10,2013-05-13 07:48:00,
2013-05-13 04:03:00,31.0,28.0,30.13,NW,323,0.0,-999.0,87,-99.99,,,0.00,weatherlink.com 1.10,2013-05-13 08:03:00,
2013-05-13 04:18:00,31.0,28.0,30.14,NW,323,0.0,-999.0,88,-99.99,,,0.00,weatherlink.com 1.10,2013-05-13 08:18:00,
2013-05-13 04:33:00,30.9,28.0,30.14,NW,323,0.0,-999.0,87,-99.99,,,0.00,weatherlink.com 1.10,2013-05-13 08:33:00,
2013-05-13 04:48:00,30.6,28.0,30.14,NW,323,0.0,-999.0,88,-99.99,,,0.00,weatherlink.com 1.10,2013-05-13 08:48:00,
2013-05-13 05:03:00,30.1,27.0,30.14,NW,323,0.0,-999.0,89,-99.99,,,0.00,weatherlink.com 1.10,2013-05-13 09:03:00,
2013-05-13 05:18:00,30.0,28.0,30.14,NW,323,0.0,-999.0,90,-99.99,,,0.00,weatherlink.com 1.10,2013-05-13 09:18:00,
2013-05-13 05:33:00,29.8,27.0,30.14,NW,323,0.0,-999.0,90,-99.99,,,0.00,weatherlink.com 1.10,2013-05-13 09:33:00,
2013-05-13 05:48:00,29.8,27.0,30.14,NW,313,0.0,-999.0,90,-99.99,,,0.00,weatherlink.com 1.10,2013-05-13 09:48:00,
2013-05-13 06:03:00,29.6,27.0,30.14,WNW,286,0.0,-999.0,89,-99.99,,,0.00,weatherlink.com 1.10,2013-05-13 10:03:00,
2013-05-13 06:18:00,30.0,27.0,30.14,WNW,285,0.0,-999.0,89,-99.99,,,0.00,weatherlink.com 1.10,2013-05-13 10:18:00,
2013-05-13 06:33:00,30.2,27.0,30.14,WNW,293,0.0,-999.0,88,-99.99,,,0.00,weatherlink.com 1.10,2013-05-13 10:33:00,
2013-05-13 06:48:00,31.3,28.0,30.15,WNW,294,0.0,-999.0,87,-99.99,,,0.00,weatherlink.com 1.10,2013-05-13 10:48:00,
2013-05-13 07:03:00,32.7,29.0,30.15,West,276,0.0,-999.0,86,-99.99,,,0.00,weatherlink.com 1.10,2013-05-13 11:03:00,
2013-05-13 07:18:00,33.8,30.0,30.16,WNW,283,0.0,-999.0,85,-99.99,,,0.00,weatherlink.com 1.10,2013-05-13 11:18:00,
2013-05-13 07:33:00,35.9,31.0,30.16,West,278,0.0,-999.0,83,-99.99,,,0.00,weatherlink.com 1.10,2013-05-13 11:33:00,
2013-05-13 07:48:00,36.6,30.0,30.17,NW,304,1.0,-999.0,76,-99.99,,,0.00,weatherlink.com 1.10,2013-05-13 11:48:00,
2013-05-13 08:03:00,37.7,30.0,30.17,WNW,298,5.0,-999.0,74,-99.99,,,0.00,weatherlink.com 1.10,2013-05-13 12:03:00,
2013-05-13 08:18:00,38.8,29.0,30.18,WNW,300,6.0,-999.0,68,-99.99,,,0.00,weatherlink.com 1.10,2013-05-13 12:18:00,
2013-05-13 08:33:00,39.6,29.0,30.18,WSW,255,13.0,-999.0,65,-99.99,,,0.00,weatherlink.com 1.10,2013-05-13 12:33:00,
2013-05-13 08:48:00,40.2,28.0,30.19,WNW,292,4.0,-999.0,63,-99.99,,,0.00,weatherlink.com 1.10,2013-05-13 12:48:00,
2013-05-13 09:03:00,41.0,27.0,30.20,NW,321,7.0,-999.0,59,-99.99,,,0.00,weatherlink.com 1.10,2013-05-13 13:03:00,
2013-05-13 09:18:00,41.9,28.0,30.20,NW,322,4.0,-999.0,59,-99.99,,,0.00,weatherlink.com 1.10,2013-05-13 13:18:00,
2013-05-13 09:33:00,42.8,27.0,30.20,WNW,300,8.0,-999.0,54,-99.99,,,0.00,weatherlink.com 1.10,2013-05-13 13:33:00,
2013-05-13 09:48:00,43.6,27.0,30.20,NW,306,9.0,-999.0,53,-99.99,,,0.00,weatherlink.com 1.10,2013-05-13 13:48:00,
2013-05-13 10:03:00,44.3,27.0,30.20,WNW,291,7.0,-999.0,51,-99.99,,,0.00,weatherlink.com 1.10,2013-05-13 14:03:00,
2013-05-13 10:18:00,44.4,27.0,30.20,West,276,8.0,-999.0,50,-99.99,,,0.00,weatherlink.com 1.10,2013-05-13 14:18:00,
2013-05-13 10:33:00,45.2,27.0,30.20,WNW,293,3.0,-999.0,49,-99.99,,,0.00,weatherlink.com 1.10,2013-05-13 14:33:00,
2013-05-13 10:48:00,45.5,27.0,30.20,NW,304,5.0,-999.0,48,-99.99,,,0.00,weatherlink.com 1.10,2013-05-13 14:48:00,
2013-05-13 11:03:00,46.7,28.0,30.21,WNW,286,9.0,-999.0,48,-99.99,,,0.00,weatherlink.com 1.10,2013-05-13 15:03:00,
2013-05-13 11:18:00,47.4,26.0,30.21,WNW,294,5.0,-999.0,43,-99.99,,,0.00,weatherlink.com 1.10,2013-05-13 15:18:00,
2013-05-13 11:33:00,48.0,27.0,30.21,West,280,3.0,-999.0,44,-99.99,,,0.00,weatherlink.com 1.10,2013-05-13 15:33:00,
2013-05-13 11:48:00,48.6,26.0,30.21,West,278,4.0,-999.0,42,-99.99,,,0.00,weatherlink.com 1.10,2013-05-13 15:48:00,
2013-05-13 12:03:00,49.3,27.0,30.20,NW,310,4.0,-999.0,43,-99.99,,,0.00,weatherlink.com 1.10,2013-05-13 16:03:00,
2013-05-13 12:18:00,49.6,27.0,30.20,West,273,3.0,-999.0,42,-99.99,,,0.00,weatherlink.com 1.10,2013-05-13 16:18:00,
2013-05-13 12:33:00,49.7,27.0,30.20,NNW,337,7.0,-999.0,42,-99.99,,,0.00,weatherlink.com 1.10,2013-05-13 16:33:00,
2013-05-13 12:48:00,50.9,28.0,30.20,West,278,3.0,-999.0,41,-99.99,,,0.00,weatherlink.com 1.10,2013-05-13 16:48:00,
2013-05-13 13:03:00,51.5,28.0,30.20,NNW,330,7.0,-999.0,41,-99.99,,,0.00,weatherlink.com 1.10,2013-05-13 17:03:00,
2013-05-13 13:18:00,51.1,25.0,30.19,WNW,303,5.0,-999.0,37,-99.99,,,0.00,weatherlink.com 1.10,2013-05-13 17:18:00,
2013-05-13 13:33:00,52.6,27.0,30.19,NW,319,7.0,-999.0,37,-99.99,,,0.00,weatherlink.com 1.10,2013-05-13 17:33:00,
2013-05-13 13:48:00,53.8,29.0,30.19,NW,326,3.0,-999.0,38,-99.99,,,0.00,weatherlink.com 1.10,2013-05-13 17:48:00,
2013-05-13 14:03:00,54.0,27.0,30.19,WNW,297,10.0,-999.0,36,-99.99,,,0.00,weatherlink.com 1.10,2013-05-13 18:03:00,
2013-05-13 14:18:00,53.2,27.0,30.19,NW,307,5.0,-999.0,36,-99.99,,,0.00,weatherlink.com 1.10,2013-05-13 18:18:00,
2013-05-13 14:33:00,53.9,27.0,30.19,NNW,332,2.0,-999.0,36,-99.99,,,0.00,weatherlink.com 1.10,2013-05-13 18:33:00,
2013-05-13 14:48:00,53.2,26.0,30.18,WNW,294,7.0,-999.0,35,-99.99,,,0.00,weatherlink.com 1.10,2013-05-13 18:48:00,
2013-05-13 15:03:00,53.9,25.0,30.18,NW,309,7.0,-999.0,33,-99.99,,,0.00,weatherlink.com 1.10,2013-05-13 19:03:00,
2013-05-13 15:18:00,54.5,26.0,30.18,WNW,293,3.0,-999.0,33,-99.99,,,0.00,weatherlink.com 1.10,2013-05-13 19:18:00,
2013-05-13 15:33:00,55.4,27.0,30.17,NW,315,4.0,-999.0,33,-99.99,,,0.00,weatherlink.com 1.10,2013-05-13 19:33:00,
2013-05-13 15:48:00,56.4,27.0,30.17,WNW,302,7.0,-999.0,33,-99.99,,,0.00,weatherlink.com 1.10,2013-05-13 19:48:00,
2013-05-13 16:03:00,56.0,25.0,30.16,WNW,295,3.0,-999.0,30,-99.99,,,0.00,weatherlink.com 1.10,2013-05-13 20:03:00,
2013-05-13 16:18:00,55.9,27.0,30.15,NW,316,6.0,-999.0,33,-99.99,,,0.00,weatherlink.com 1.10,2013-05-13 20:18:00,
2013-05-13 16:33:00,54.6,24.0,30.15,NE,41,1.0,-999.0,30,-99.99,,,0.00,weatherlink.com 1.10,2013-05-13 20:33:00,
2013-05-13 16:48:00,56.1,26.0,30.15,NW,311,4.0,-999.0,31,-99.99,,,0.00,weatherlink.com 1.10,2013-05-13 20:48:00,
2013-05-13 17:03:00,55.4,24.0,30.14,NNW,344,3.0,-999.0,30,-99.99,,,0.00,weatherlink.com 1.10,2013-05-13 21:03:00,
2013-05-13 17:18:00,56.1,23.0,30.14,SW,217,2.0,-999.0,28,-99.99,,,0.00,weatherlink.com 1.10,2013-05-13 21:18:00,
2013-05-13 17:33:00,57.3,27.0,30.14,SSW,197,3.0,-999.0,31,-99.99,,,0.00,weatherlink.com 1.10,2013-05-13 21:33:00,
2013-05-13 17:48:00,57.0,25.0,30.14,WNW,293,6.0,-999.0,29,-99.99,,,0.00,weatherlink.com 1.10,2013-05-13 21:48:00,
2013-05-13 18:03:00,56.4,23.0,30.14,NW,305,5.0,-999.0,27,-99.99,,,0.00,weatherlink.com 1.10,2013-05-13 22:03:00,
2013-05-13 18:18:00,56.1,22.0,30.14,WNW,288,4.0,-999.0,27,-99.99,,,0.00,weatherlink.com 1.10,2013-05-13 22:18:00,
2013-05-13 18:33:00,56.0,23.0,30.13,WNW,297,3.0,-999.0,28,-99.99,,,0.00,weatherlink.com 1.10,2013-05-13 22:33:00,
2013-05-13 18:48:00,55.7,23.0,30.13,WNW,293,6.0,-999.0,28,-99.99,,,0.00,weatherlink.com 1.10,2013-05-13 22:48:00,
2013-05-13 19:03:00,56.8,25.0,30.14,WNW,298,2.0,-999.0,29,-99.99,,,0.00,weatherlink.com 1.10,2013-05-13 23:03:00,
2013-05-13 19:18:00,56.8,26.0,30.13,WNW,289,2.0,-999.0,30,-99.99,,,0.00,weatherlink.com 1.10,2013-05-13 23:18:00,
2013-05-13 19:33:00,56.5,24.0,30.13,WNW,298,2.0,-999.0,29,-99.99,,,0.00,weatherlink.com 1.10,2013-05-13 23:33:00,
2013-05-13 19:48:00,56.2,25.0,30.13,West,278,1.0,-999.0,30,-99.99,,,0.00,weatherlink.com 1.10,2013-05-13 23:48:00,
2013-05-13 20:03:00,56.2,26.0,30.13,West,272,1.0,-999.0,31,-99.99,,,0.00,weatherlink.com 1.10,2013-05-14 00:03:00,
2013-05-13 20:18:00,55.3,26.0,30.14,WNW,285,1.0,-999.0,32,-99.99,,,0.00,weatherlink.com 1.10,2013-05-14 00:18:00,
2013-05-13 20:33:00,54.4,26.0,30.13,WNW,285,0.0,-999.0,33,-99.99,,,0.00,weatherlink.com 1.10,2013-05-14 00:33:00,
2013-05-13 20:48:00,52.3,27.0,30.14,WNW,285,0.0,-999.0,37,-99.99,,,0.00,weatherlink.com 1.10,2013-05-14 00:48:00,
2013-05-13 21:03:00,50.9,29.0,30.14,ESE,103,1.0,-999.0,43,-99.99,,,0.00,weatherlink.com 1.10,2013-05-14 01:03:00,
2013-05-13 21:18:00,49.9,32.0,30.14,ESE,107,0.0,-999.0,50,-99.99,,,0.00,weatherlink.com 1.10,2013-05-14 01:18:00,
2013-05-13 21:33:00,49.3,33.0,30.13,ESE,111,0.0,-999.0,53,-99.99,,,0.00,weatherlink.com 1.10,2013-05-14 01:33:00,
2013-05-13 21:48:00,48.9,33.0,30.14,ESE,111,0.0,-999.0,55,-99.99,,,0.00,weatherlink.com 1.10,2013-05-14 01:48:00,
2013-05-13 22:03:00,48.4,34.0,30.14,ESE,111,0.0,-999.0,57,-99.99,,,0.00,weatherlink.com 1.10,2013-05-14 02:03:00,
2013-05-13 22:18:00,48.1,34.0,30.14,ESE,111,1.0,-999.0,58,-99.99,,,0.00,weatherlink.com 1.10,2013-05-14 02:18:00,
2013-05-13 22:33:00,48.0,34.0,30.14,ESE,113,0.0,-999.0,59,-99.99,,,0.00,weatherlink.com 1.10,2013-05-14 02:33:00,
2013-05-13 22:48:00,47.6,35.0,30.14,SSE,158,0.0,-999.0,61,-99.99,,,0.00,weatherlink.com 1.10,2013-05-14 02:48:00,
2013-05-13 23:03:00,47.6,35.0,30.13,South,188,2.0,-999.0,61,-99.99,,,0.00,weatherlink.com 1.10,2013-05-14 03:03:00,
2013-05-13 23:18:00,47.7,33.0,30.13,SE,131,1.0,-999.0,58,-99.99,,,0.00,weatherlink.com 1.10,2013-05-14 03:18:00,
2013-05-13 23:33:00,47.8,33.0,30.13,SSE,163,3.0,-999.0,58,-99.99,,,0.00,weatherlink.com 1.10,2013-05-14 03:33:00,
2013-05-13 23:48:00,47.5,34.0,30.13,South,183,2.0,-999.0,59,-99.99,,,0.00,weatherlink.com 1.10,2013-05-14 03:48:00,